Vue régionale

METAR et TAF

Samedi 14 septembre 2019 à 11h35

Visibilités horizontales observées à différents aéroports. Les observations (METAR) et prévisions aéronautiques (TAF) complètes sont disponibles en cliquant sur l’icône correspondante.

  • Luxemburg (ELLX)

    Taf: TAF COR ELLX 140500Z 1406/1512 08009KT CAVOK=

    Metar: METAR ELLX 140920Z 04009KT CAVOK 18/12 Q1032 NOSIG=

  • Spangdahlem (ETAD)

    Taf: TAF ETAD 140602Z 1406/1512 04006KT 9999 FEW050 QNH3045INS BECMG 1412/1413 08006KT 9999 FEW030 QNH3036INS BECMG 1421/1422 02004KT 8000 BR FEW005 SCT015 QNH3034INS BECMG 1500/1501 VRB02KT 3200 BR FEW005 SCT010 QNH3029INS BECMG 1507/1508 27006KT 9999 NSW FEW020 QNH3026INS TX21/1414Z TN09/1505Z=

    Metar: nil

  • Metz/Nancy (LFJL)

    Taf: TAF LFJL 140500Z 1406/1506 03005KT 9999 FEW035=

    Metar: nil

  • Saarbrücken/Intl (EDDR)

    Taf: TAF EDDR 140500Z 1406/1506 04008KT CAVOK BECMG 1421/1423 04003KT=

    Metar: nil

  • Hahn (EDFH)

    Taf: TAF EDFH 140500Z 1406/1506 10005KT CAVOK=

    Metar: nil

  • Ramstein (ETAR)

    Taf: TAF ETAR 140202Z 1402/1508 VRB06KT 9999 BKN060 QNH3046INS TEMPO 1405/1409 BKN030 BECMG 1408/1409 VRB06KT 9999 BKN035 QNH3041INS BECMG 1412/1413 07009KT 9999 SCT040 QNH3029INS BECMG 1504/1505 VRB06KT 9999 SKC QNH3028INS TX24/1414Z TN08/1405Z=

    Metar: nil

  • Nancy/Ochey (LFSO)

    Taf: TAF LFSO 140800Z NIL=

    Metar: nil

  • Liège Bierset (EBLG)

    Taf: TAF EBLG 140505Z 1406/1512 06004KT CAVOK PROB40 1502/1507 4000 BR=

    Metar: nil

  • Saint-Dizier (LFSI)

    Taf: TAF LFSI 140800Z 1409/1509 08008KT CAVOK=

    Metar: nil

  • Maastricht/Zuid Limburg (EHBK)

    Taf: TAF EHBK 140507Z 1406/1512 10007KT CAVOK=

    Metar: nil

  • Köln/Köln-Bonn (EDDK)

    Taf: TAF EDDK 140500Z 1406/1512 10004KT CAVOK=

    Metar: METAR EDDK 140920Z 09003KT 020V180 CAVOK 18/10 Q1033 NOSIG=

  • Charleroi (EBCI)

    Taf: TAF EBCI 140505Z 1406/1512 06004KT CAVOK PROB40 1501/1507 4000 BR=

    Metar: nil

  • Wiesbaden (ETOU)

    Taf: TAF ETOU 131901Z 1319/1501 35009KT 9999 SCT020 BKN030 BKN060 QNH3048INS BECMG 1411/1412 VRB06KT 9999 SKC QNH3046INS BECMG 1422/1423 VRB06KT 9999 FEW030 QNH3036INS TX24/1414Z TN09/1405Z LAST NO AMDS AFT 1319 NEXT 1411=

    Metar: nil

  • Karlsruhe/Baden-Baden (EDSB)

    Taf: TAF EDSB 140500Z 1406/1506 04010KT CAVOK BECMG 1417/1419 04005KT=

    Metar: nil

  • Chalons/Vatry (LFOK)

    Taf: TAF LFOK 140500Z 1406/1506 05008KT 4000 BR NSC BECMG 1406/1408 CAVOK=

    Metar: nil

  • Frankfurt/Main (EDDF)

    Taf: TAF EDDF 140500Z 1406/1512 04010KT CAVOK BECMG 1418/1420 03003KT=

    Metar: METAR EDDF 140920Z 04007KT 350V110 CAVOK 18/10 Q1032 NOSIG=

  • Brüssel (EBBR)

    Taf: TAF EBBR 140505Z 1406/1512 06005KT CAVOK PROB40 1502/1507 4000 BR=

    Metar: METAR EBBR 140920Z 10005KT 060V190 CAVOK 17/10 Q1033 NOSIG=

  • Düsseldorf (EDDL)

    Taf: TAF EDDL 140500Z 1406/1512 03004KT CAVOK BECMG 1501/1504 16005KT BECMG 1507/1509 23006KT=

    Metar: nil

  • Luxeuil (LFSX)

    Taf: TAF LFSX 140800Z NIL=

    Metar: nil

  • Eindhoven (EHEH)

    Taf: TAF EHEH 140502Z 1406/1512 04004KT CAVOK BECMG 1414/1417 VRB03KT BECMG 1501/1504 21004KT=

    Metar: nil

  • Niederrhein (EDLV)

    Taf: TAF EDLV 140500Z 1406/1506 06004KT CAVOK=

    Metar: nil

  • Dortmund/Wickede (EDLW)

    Taf: TAF EDLW 140500Z 1406/1506 06004KT CAVOK BECMG 1420/1423 18005KT=

    Metar: nil

  • Stuttgart/Echterdingen (EDDS)

    Taf: TAF EDDS 140500Z 1406/1506 VRB03KT 9999 SCT045 BECMG 1411/1413 05008KT BECMG 1417/1419 VRB03KT PROB30 TEMPO 1503/1506 3000 BR=

    Metar: METAR EDDS 140920Z 07003KT 360V140 9999 FEW020 19/14 Q1031 NOSIG=

  • Basel-Mühlhausen (LFSB)

    Taf: TAF AMD LFSB 140712Z 1407/1506 31005KT 6000 BKN006 TEMPO 1407/1409 4000 BR BKN004 PROB40 TEMPO 1407/1409 0800 BCFG BKN001 BECMG 1408/1410 CAVOK TEMPO 1500/1506 4000 BR=

    Metar: METAR LFSB 140900Z VRB02KT 3000 BR OVC003 16/15 Q1031 BECMG CAVOK=

  • Lille (LFQQ)

    Taf: TAF LFQQ 140500Z 1406/1512 03006KT CAVOK BECMG 1408/1411 09010KT BECMG 1420/1422 VRB02KT BECMG 1509/1512 28010KT=

    Metar: nil

  • Paris/Charles de Gaulle (LFPG)

    Taf: TAF LFPG 140500Z 1406/1512 03008KT 8000 NSC TX26/1415Z TN12/1505Z=

    Metar: nil

  • Paderborn/Lippstadt (EDLP)

    Taf: TAF EDLP 140500Z 1406/1506 14004KT CAVOK=

    Metar: nil

  • Paris/Le Bourget (LFPB)

    Taf: TAF LFPB 140500Z 1406/1506 03008KT 8000 NSC=

    Metar: METAR LFPB 140900Z AUTO 02005KT 340V060 CAVOK 18/13 Q1031 NOSIG=

  • Rotterdam (EHRD)

    Taf: TAF EHRD 140427Z 1406/1512 10004KT CAVOK BECMG 1416/1419 18003KT BECMG 1507/1510 27011KT=

    Metar: nil

  • Zürich/Kloten (LSZH)

    Taf: TAF LSZH 140825Z 1409/1515 05007KT 9999 SCT012 TX25/1415Z TN12/1505Z TX27/1515Z PROB40 TEMPO 1409/1410 BKN012 BECMG 1409/1411 CAVOK BECMG 1416/1419 VRB03KT BECMG 1422/1424 4000 MIFG NSC BECMG 1500/1503 2000 BCFG PROB40 1503/1506 0300 FG VV001 BECMG 1507/1509 6000 BECMG 1509/1511 CAVOK=

    Metar: METAR LSZH 140920Z 10004KT 060V140 9999 SCT014 19/14 Q1031 NOSIG=

  • Oostende/Intl (EBOS)

    Taf: TAF EBOS 140505Z 1406/1512 07005KT CAVOK PROB40 1500/1507 4000 BR=

    Metar: nil

  • Paris/Orly (LFPO)

    Taf: TAF LFPO 140500Z 1406/1512 04007KT CAVOK=

    Metar: nil

  • Beauvais (LFOB)

    Taf: TAF LFOB 140500Z 1406/1506 VRB02KT CAVOK BECMG 1409/1412 08010KT BECMG 1418/1421 VRB02KT=

    Metar: nil

  • Münster/Intl (EDDG)

    Taf: TAF EDDG 140500Z 1406/1506 07003KT CAVOK=

    Metar: METAR EDDG 140920Z 09004KT 020V130 9999 FEW031 17/08 Q1035 NOSIG=

  • Illesheim (ETIK)

    Taf: TAF AMD ETIK 132146Z 1321/1420 VRB06KT 9999 SCT030 BKN040 QNH3047INS TEMPO 1404/1407 BKN020 BECMG 1411/1412 VRB06KT 9999 SCT040 QNH3046INS TX25/1414Z TN11/1406Z LAST NO AMDS AFT 1322 NEXT 1522=

    Metar: nil

  • Duebendorf (LSMD)

    Taf: TAF LSMD 140500Z NIL=

    Metar: nil

  • Villacoublay (LFPV)

    Taf: TAF LFPV 140800Z 1409/1509 04009KT CAVOK=

    Metar: nil

  • Payerne (LSMP)

    Taf: TAF LSMP 140525Z 1406/1512 VRB03KT CAVOK=

    Metar: nil

  • Amsterdam/Schipol (EHAM)

    Taf: TAF EHAM 140427Z 1406/1512 06003KT CAVOK BECMG 1408/1411 14004KT FEW030 BECMG 1418/1421 22006KT CAVOK BECMG 1507/1510 27011KT=

    Metar: METAR EHAM 140925Z 11007KT CAVOK 17/09 Q1034 NOSIG=

  • Emmen (LSME)

    Taf: TAF LSME 140500Z NIL=

    Metar: nil

  • Friedrichshafen (EDNY)

    Taf: TAF EDNY 140500Z 1406/1506 03005KT CAVOK TEMPO 1500/1506 0700 FG BKN004=

    Metar: nil

  • Alpnach (LSMA)

    Taf: TAF LSMA 140500Z NIL=

    Metar: nil

  • Meiringen (LSMM)

    Taf: TAF LSMM 140500Z NIL=

    Metar: nil

  • Nürnberg (EDDN)

    Taf: TAF EDDN 140500Z 1406/1506 VRB03KT 9999 SCT035 BECMG 1406/1408 05005KT BECMG 1416/1418 VRB03KT=

    Metar: METAR EDDN 140920Z VRB02KT 9999 FEW023 20/13 Q1032 NOSIG=

  • Rouen (LFOP)

    Taf: TAF LFOP 140500Z 1406/1506 04007KT CAVOK BECMG 1420/1422 VRB02KT=

    Metar: nil

  • Evreux (LFOE)

    Taf: TAF LFOE 140800Z 1409/1509 05008KT CAVOK BECMG 1410/1412 SCT030=

    Metar: nil

  • Erfurt/Bindersleben (EDDE)

    Taf: TAF EDDE 140500Z 1406/1506 04005KT CAVOK BECMG 1418/1420 15005KT BECMG 1422/1501 21007KT=

    Metar: nil